createdAt,value
2023-04-16T00:00:25.584Z,8.60
2023-04-16T00:02:52.456Z,8.60
2023-04-16T00:05:19.306Z,8.70
2023-04-16T00:07:46.017Z,8.70
2023-04-16T00:10:12.786Z,8.60
2023-04-16T00:12:39.612Z,8.70
2023-04-16T00:15:08.289Z,8.70
2023-04-16T00:17:35.203Z,8.60
2023-04-16T00:20:02.409Z,8.60
2023-04-16T00:22:29.191Z,8.60
2023-04-16T00:24:56.034Z,8.60
2023-04-16T00:27:22.867Z,8.70
2023-04-16T00:29:49.617Z,8.60
2023-04-16T00:32:16.594Z,8.60
2023-04-16T00:34:43.270Z,8.60
2023-04-16T00:37:09.956Z,8.60
2023-04-16T00:39:37.589Z,8.60
2023-04-16T00:42:04.484Z,8.60
2023-04-16T00:44:31.288Z,8.60
2023-04-16T00:46:58.744Z,8.60
2023-04-16T00:49:25.782Z,8.60
2023-04-16T00:51:52.541Z,8.60
2023-04-16T00:54:19.839Z,8.60
2023-04-16T00:56:49.397Z,8.50
2023-04-16T00:59:16.778Z,8.50
2023-04-16T01:01:43.646Z,8.60
2023-04-16T01:04:10.705Z,8.60
2023-04-16T01:06:37.557Z,8.60
2023-04-16T01:09:05.684Z,8.70
2023-04-16T01:11:32.748Z,8.60
2023-04-16T01:13:59.519Z,8.60
2023-04-16T01:16:26.955Z,8.60
2023-04-16T01:18:53.823Z,8.60
2023-04-16T01:21:20.916Z,8.70
2023-04-16T01:23:48.673Z,8.70
2023-04-16T01:26:15.543Z,8.70
2023-04-16T01:28:44.819Z,8.60
2023-04-16T01:31:11.620Z,8.80
2023-04-16T01:33:39.428Z,8.80
2023-04-16T01:36:06.698Z,8.80
2023-04-16T01:38:33.441Z,8.80
2023-04-16T01:41:00.277Z,8.80
2023-04-16T01:43:27.105Z,8.90
2023-04-16T01:46:14.046Z,8.90
2023-04-16T01:48:40.989Z,8.90
2023-04-16T01:51:07.702Z,8.90
2023-04-16T01:53:36.549Z,8.90
2023-04-16T01:56:04.206Z,8.90
2023-04-16T01:58:32.593Z,8.80
2023-04-16T02:00:59.549Z,8.80
2023-04-16T02:03:26.684Z,8.90
2023-04-16T02:05:53.796Z,8.90
2023-04-16T02:08:21.329Z,8.90
2023-04-16T02:10:49.840Z,8.90
2023-04-16T02:13:16.906Z,8.90
2023-04-16T02:15:51.254Z,8.90
2023-04-16T02:18:18.605Z,8.90
2023-04-16T02:20:47.064Z,8.90
2023-04-16T02:23:17.077Z,8.90
2023-04-16T02:25:47.645Z,8.90
2023-04-16T02:28:16.797Z,9.00
2023-04-16T02:30:44.715Z,8.90
2023-04-16T02:33:13.002Z,8.80
2023-04-16T02:35:40.576Z,8.90
2023-04-16T02:38:08.189Z,8.90
2023-04-16T02:40:34.992Z,8.90
2023-04-16T02:43:04.251Z,8.80
2023-04-16T02:45:31.685Z,8.80
2023-04-16T02:48:00.051Z,8.90
2023-04-16T02:50:26.982Z,8.80
2023-04-16T02:52:53.677Z,8.70
2023-04-16T02:55:20.581Z,8.80
2023-04-16T02:57:47.325Z,8.80
2023-04-16T03:00:14.408Z,8.80
2023-04-16T03:02:42.343Z,8.70
2023-04-16T03:05:10.317Z,8.80
2023-04-16T03:07:39.504Z,8.90
2023-04-16T03:10:07.744Z,8.80
2023-04-16T03:12:35.297Z,8.70
2023-04-16T03:15:02.478Z,8.70
2023-04-16T03:17:29.448Z,8.70
2023-04-16T03:19:56.222Z,8.70
2023-04-16T03:22:23.283Z,8.70
2023-04-16T03:24:50.073Z,8.70
2023-04-16T03:27:16.796Z,8.80
2023-04-16T03:29:43.559Z,8.70
2023-04-16T03:32:12.421Z,8.70
2023-04-16T03:34:39.211Z,8.70
2023-04-16T03:37:06.217Z,8.60
2023-04-16T03:39:34.675Z,8.60
2023-04-16T03:42:02.585Z,8.60
2023-04-16T03:44:30.118Z,8.60
2023-04-16T03:46:57.025Z,8.60
2023-04-16T03:49:24.014Z,8.60
2023-04-16T03:51:52.074Z,8.50
2023-04-16T03:54:22.578Z,8.60
2023-04-16T03:56:49.871Z,8.60
2023-04-16T03:59:16.560Z,8.60
2023-04-16T04:01:43.374Z,8.50
2023-04-16T04:04:11.268Z,8.50
2023-04-16T04:06:38.103Z,8.60
2023-04-16T04:09:04.878Z,8.60
2023-04-16T04:11:34.158Z,8.60
2023-04-16T04:14:00.848Z,8.60
2023-04-16T04:16:27.622Z,8.60
2023-04-16T04:18:55.592Z,8.70
2023-04-16T04:21:22.471Z,8.60
2023-04-16T04:23:49.637Z,8.70
2023-04-16T04:26:16.438Z,8.60
2023-04-16T04:28:45.837Z,8.60
2023-04-16T04:31:14.980Z,8.60
2023-04-16T04:33:41.781Z,8.60
2023-04-16T04:36:08.519Z,8.70
2023-04-16T04:38:35.308Z,8.60
2023-04-16T04:41:02.162Z,8.60
2023-04-16T04:43:30.007Z,8.60
2023-04-16T04:45:56.795Z,8.60
2023-04-16T04:48:26.473Z,8.60
2023-04-16T04:50:53.828Z,8.50
2023-04-16T04:53:20.664Z,8.50
2023-04-16T04:55:50.895Z,8.60
2023-04-16T04:58:22.307Z,8.60
2023-04-16T05:00:49.073Z,8.60
2023-04-16T05:03:21.480Z,8.60
2023-04-16T05:05:48.442Z,8.60
2023-04-16T05:08:16.318Z,8.60
2023-04-16T05:10:43.048Z,8.60
2023-04-16T05:13:09.755Z,8.60
2023-04-16T05:15:36.600Z,8.60
2023-04-16T05:18:03.501Z,8.60
2023-04-16T05:20:30.364Z,8.70
2023-04-16T05:22:57.072Z,8.70
2023-04-16T05:25:23.876Z,8.60
2023-04-16T05:27:50.579Z,8.70
2023-04-16T05:30:17.425Z,8.70
2023-04-16T05:32:44.198Z,8.70
2023-04-16T05:35:11.201Z,8.70
2023-04-16T05:37:37.993Z,8.70
2023-04-16T05:40:06.936Z,8.60
2023-04-16T05:42:33.635Z,8.70
2023-04-16T05:45:04.767Z,8.70
2023-04-16T05:47:31.544Z,8.70
2023-04-16T05:49:58.258Z,8.80
2023-04-16T05:52:24.972Z,8.80
2023-04-16T05:54:51.691Z,8.80
2023-04-16T05:57:18.406Z,8.70
2023-04-16T05:59:45.256Z,8.80
2023-04-16T06:02:12.303Z,8.80
2023-04-16T06:04:39.131Z,8.80
2023-04-16T06:07:07.233Z,8.80
2023-04-16T06:09:33.927Z,8.90
2023-04-16T06:12:01.239Z,8.80
2023-04-16T06:14:28.098Z,8.90
2023-04-16T06:16:54.934Z,8.90
2023-04-16T06:19:21.714Z,8.90
2023-04-16T06:21:48.523Z,8.90
2023-04-16T06:24:15.510Z,8.90
2023-04-16T06:26:42.201Z,8.90
2023-04-16T06:29:09.156Z,8.90
2023-04-16T06:31:41.250Z,8.90
2023-04-16T06:34:10.283Z,9.00
2023-04-16T06:36:37.672Z,9.00
2023-04-16T06:39:04.956Z,9.10
2023-04-16T06:41:31.733Z,9.10
2023-04-16T06:43:58.486Z,9.00
2023-04-16T06:46:25.311Z,9.10
2023-04-16T06:48:52.168Z,9.10
2023-04-16T06:51:19.027Z,9.10
2023-04-16T06:53:45.870Z,9.20
2023-04-16T06:56:12.595Z,9.10
2023-04-16T06:58:39.298Z,9.10
2023-04-16T07:01:06.462Z,9.20
2023-04-16T07:03:33.390Z,9.10
2023-04-16T07:06:00.190Z,9.20
2023-04-16T07:08:26.961Z,9.10
2023-04-16T07:10:56.959Z,9.10
2023-04-16T07:13:23.798Z,9.20
2023-04-16T07:15:50.658Z,9.10
2023-04-16T07:18:18.373Z,9.10
2023-04-16T07:20:46.060Z,9.20
2023-04-16T07:23:12.755Z,9.20
2023-04-16T07:25:41.133Z,9.10
2023-04-16T07:28:07.901Z,9.20
2023-04-16T07:30:36.033Z,9.20
2023-04-16T07:33:05.754Z,9.20
2023-04-16T07:35:32.614Z,9.20
2023-04-16T07:37:59.315Z,9.20
2023-04-16T07:40:27.126Z,9.20
2023-04-16T07:42:56.086Z,9.20
2023-04-16T07:45:24.537Z,9.30
2023-04-16T07:47:51.341Z,9.30
2023-04-16T07:50:19.464Z,9.20
2023-04-16T07:52:47.587Z,9.30
2023-04-16T07:55:14.676Z,9.20
2023-04-16T07:57:41.694Z,9.20
2023-04-16T08:00:12.255Z,9.30
2023-04-16T08:02:39.199Z,9.20
2023-04-16T08:05:07.244Z,9.20
2023-04-16T08:07:34.750Z,9.30
2023-04-16T08:10:02.479Z,9.30
2023-04-16T08:12:30.292Z,9.30
2023-04-16T08:14:58.246Z,9.30
2023-04-16T08:17:27.593Z,9.40
2023-04-16T08:19:54.366Z,9.40
2023-04-16T08:22:22.696Z,9.50
2023-04-16T08:24:49.407Z,9.50
2023-04-16T08:27:19.657Z,9.60
2023-04-16T08:29:56.438Z,9.50
2023-04-16T08:32:23.171Z,9.50
2023-04-16T08:34:50.049Z,9.50
2023-04-16T08:37:16.861Z,9.50
2023-04-16T08:39:43.616Z,9.60
2023-04-16T08:42:29.446Z,9.50
2023-04-16T08:45:13.712Z,9.50
2023-04-16T08:47:45.814Z,9.50
2023-04-16T08:50:16.497Z,9.50
2023-04-16T08:52:59.319Z,9.50
2023-04-16T08:55:48.762Z,9.60
2023-04-16T08:58:23.706Z,9.70
2023-04-16T09:00:51.459Z,9.50
2023-04-16T09:03:21.562Z,9.50
2023-04-16T09:05:50.535Z,9.60
2023-04-16T09:08:18.188Z,9.60
2023-04-16T09:10:45.237Z,9.60
2023-04-16T09:13:15.756Z,9.60
2023-04-16T09:15:44.060Z,9.60
2023-04-16T09:18:12.016Z,9.70
2023-04-16T09:20:39.648Z,9.70
2023-04-16T09:23:06.441Z,9.70
2023-04-16T09:25:35.015Z,9.70
2023-04-16T09:28:01.799Z,9.70
2023-04-16T09:30:28.605Z,9.70
2023-04-16T09:33:23.257Z,9.70
2023-04-16T09:35:52.621Z,9.70
2023-04-16T09:38:21.041Z,9.70
2023-04-16T09:40:47.874Z,9.70
2023-04-16T09:43:18.554Z,9.70
2023-04-16T09:45:55.503Z,9.70
2023-04-16T09:48:35.726Z,9.70
2023-04-16T09:51:09.730Z,9.80
2023-04-16T09:53:36.706Z,9.90
2023-04-16T09:56:06.663Z,9.90
2023-04-16T09:58:39.628Z,9.90
2023-04-16T10:01:11.428Z,9.90
2023-04-16T10:03:41.520Z,9.80
2023-04-16T10:06:18.511Z,9.80
2023-04-16T10:08:57.012Z,9.90
2023-04-16T10:11:24.786Z,9.90
2023-04-16T10:13:51.935Z,9.90
2023-04-16T10:16:22.504Z,10.00
2023-04-16T10:18:49.479Z,10.10
2023-04-16T10:21:16.720Z,10.10
2023-04-16T10:23:44.285Z,10.00
2023-04-16T10:26:11.382Z,10.10
2023-04-16T10:28:38.445Z,10.10
2023-04-16T10:31:08.922Z,10.30
2023-04-16T10:33:40.430Z,10.30
2023-04-16T10:36:12.527Z,10.40
2023-04-16T10:38:47.397Z,10.10
2023-04-16T10:41:18.446Z,10.10
2023-04-16T10:43:47.036Z,10.10
2023-04-16T10:46:32.191Z,10.00
2023-04-16T10:49:19.436Z,10.10
2023-04-16T10:51:58.539Z,10.10
2023-04-16T10:54:28.794Z,10.20
2023-04-16T10:57:10.390Z,10.20
2023-04-16T10:59:39.561Z,10.20
2023-04-16T11:02:20.273Z,10.20
2023-04-16T11:04:51.963Z,10.20
2023-04-16T11:07:34.133Z,10.30
2023-04-16T11:10:12.604Z,10.30
2023-04-16T11:12:42.853Z,10.40
2023-04-16T11:15:15.798Z,10.30
2023-04-16T11:17:48.968Z,10.40
2023-04-16T11:20:24.830Z,10.50
2023-04-16T11:22:54.623Z,10.50
2023-04-16T11:25:29.395Z,10.40
2023-04-16T11:27:58.958Z,10.50
2023-04-16T11:30:41.469Z,10.50
2023-04-16T11:33:11.185Z,10.60
2023-04-16T11:35:41.285Z,10.60
2023-04-16T11:38:08.169Z,10.50
2023-04-16T11:40:36.321Z,10.50
2023-04-16T11:43:16.762Z,10.60
2023-04-16T11:46:00.074Z,10.50
2023-04-16T11:48:46.770Z,10.40
2023-04-16T11:51:13.992Z,10.50
2023-04-16T11:53:52.931Z,10.60
2023-04-16T11:56:30.310Z,10.70
2023-04-16T11:59:16.525Z,10.70
2023-04-16T12:01:49.194Z,10.70
2023-04-16T12:04:20.070Z,10.60
2023-04-16T12:07:11.691Z,10.60
2023-04-16T12:09:43.839Z,10.60
2023-04-16T12:12:32.265Z,10.60
2023-04-16T12:15:03.581Z,10.50
2023-04-16T12:17:35.922Z,10.50
2023-04-16T12:20:10.129Z,10.40
2023-04-16T12:22:40.452Z,10.50
2023-04-16T12:25:18.129Z,10.40
2023-04-16T12:27:54.043Z,10.60
2023-04-16T12:30:23.421Z,10.50
2023-04-16T12:33:13.744Z,10.50
2023-04-16T12:35:43.339Z,10.50
2023-04-16T12:38:10.825Z,10.70
2023-04-16T12:40:38.444Z,10.70
2023-04-16T12:43:05.386Z,10.70
2023-04-16T12:45:32.179Z,10.70
2023-04-16T12:47:59.287Z,10.80
2023-04-16T12:50:26.286Z,10.70
2023-04-16T12:52:53.014Z,10.80
2023-04-16T12:55:19.865Z,10.90
2023-04-16T12:57:48.785Z,11.00
2023-04-16T13:00:16.343Z,11.10
2023-04-16T13:02:43.222Z,11.10
2023-04-16T13:05:10.257Z,11.20
2023-04-16T13:07:37.251Z,11.30
2023-04-16T13:10:05.395Z,11.30
2023-04-16T13:12:32.666Z,11.40
2023-04-16T13:14:59.644Z,11.50
2023-04-16T13:17:26.482Z,11.50
2023-04-16T13:19:53.223Z,11.60
2023-04-16T13:22:20.013Z,11.70
2023-04-16T13:24:46.914Z,11.80
2023-04-16T13:27:15.990Z,11.60
2023-04-16T13:29:42.812Z,11.60
2023-04-16T13:32:10.208Z,11.60
2023-04-16T13:34:37.086Z,11.60
2023-04-16T13:37:03.865Z,11.50
2023-04-16T13:39:30.628Z,11.50
2023-04-16T13:41:57.391Z,11.60
2023-04-16T13:44:24.089Z,11.60
2023-04-16T13:46:51.981Z,11.60
2023-04-16T13:49:19.623Z,11.70
2023-04-16T13:51:46.394Z,11.70
2023-04-16T13:54:13.382Z,11.60
2023-04-16T13:56:40.842Z,11.60
2023-04-16T13:59:08.698Z,11.60
2023-04-16T14:01:35.780Z,11.60
2023-04-16T14:04:06.806Z,11.70
2023-04-16T14:06:34.854Z,11.70
2023-04-16T14:09:01.867Z,11.70
2023-04-16T14:11:28.885Z,11.70
2023-04-16T14:13:57.114Z,11.70
2023-04-16T14:16:23.878Z,11.60
2023-04-16T14:18:52.182Z,11.70
2023-04-16T14:21:19.151Z,11.70
2023-04-16T14:23:45.917Z,11.70
2023-04-16T14:26:12.875Z,11.70
2023-04-16T14:28:40.872Z,11.70
2023-04-16T14:31:07.659Z,11.70
2023-04-16T14:33:34.484Z,11.70
2023-04-16T14:36:03.220Z,11.60
2023-04-16T14:38:31.163Z,11.60
2023-04-16T14:40:58.150Z,11.70
2023-04-16T14:43:32.302Z,11.70
2023-04-16T14:45:59.924Z,11.60
2023-04-16T14:48:26.743Z,11.50
2023-04-16T14:50:54.062Z,11.50
2023-04-16T14:53:23.656Z,11.70
2023-04-16T14:55:52.182Z,11.60
2023-04-16T14:58:19.116Z,11.50
2023-04-16T15:00:46.878Z,11.50
2023-04-16T15:03:13.881Z,11.50
2023-04-16T15:05:41.164Z,11.40
2023-04-16T15:08:07.914Z,11.50
2023-04-16T15:10:35.079Z,11.50
2023-04-16T15:13:01.810Z,11.50
2023-04-16T15:15:29.574Z,11.50
2023-04-16T15:17:57.665Z,11.60
2023-04-16T15:20:24.554Z,11.50
2023-04-16T15:22:53.028Z,11.50
2023-04-16T15:25:19.920Z,11.50
2023-04-16T15:27:46.709Z,11.40
2023-04-16T15:30:13.841Z,11.50
2023-04-16T15:32:40.655Z,11.40
2023-04-16T15:35:09.215Z,11.40
2023-04-16T15:37:40.812Z,11.30
2023-04-16T15:40:11.019Z,11.40
2023-04-16T15:42:38.601Z,11.40
2023-04-16T15:45:06.183Z,11.30
2023-04-16T15:47:33.009Z,11.20
2023-04-16T15:49:59.760Z,11.10
2023-04-16T15:52:26.540Z,11.20
2023-04-16T15:54:54.525Z,11.20
2023-04-16T15:57:21.302Z,11.30
2023-04-16T16:00:03.222Z,11.30
2023-04-16T16:02:32.792Z,11.30
2023-04-16T16:05:00.746Z,11.30
2023-04-16T16:07:27.516Z,11.30
2023-04-16T16:09:54.273Z,11.30
2023-04-16T16:12:20.996Z,11.40
2023-04-16T16:14:47.817Z,11.40
2023-04-16T16:17:14.804Z,11.40
2023-04-16T16:19:41.521Z,11.40
2023-04-16T16:22:10.044Z,11.40
2023-04-16T16:24:36.863Z,11.40
2023-04-16T16:27:03.852Z,11.40
2023-04-16T16:29:30.903Z,11.50
2023-04-16T16:31:57.901Z,11.40
2023-04-16T16:34:24.875Z,11.50
2023-04-16T16:36:51.663Z,11.60
2023-04-16T16:39:18.664Z,11.70
2023-04-16T16:41:45.601Z,11.60
2023-04-16T16:44:12.576Z,11.60
2023-04-16T16:46:39.306Z,11.50
2023-04-16T16:49:06.957Z,11.60
2023-04-16T16:51:33.930Z,11.50
2023-04-16T16:54:00.933Z,11.30
2023-04-16T16:56:28.001Z,11.30
2023-04-16T16:58:54.784Z,11.20
2023-04-16T17:01:21.554Z,11.20
2023-04-16T17:03:48.515Z,11.10
2023-04-16T17:06:15.460Z,11.10
2023-04-16T17:08:42.262Z,11.10
2023-04-16T17:11:09.174Z,11.00
2023-04-16T17:13:35.932Z,11.00
2023-04-16T17:16:02.761Z,11.00
2023-04-16T17:18:31.785Z,11.00
2023-04-16T17:20:58.664Z,10.90
2023-04-16T17:23:25.565Z,10.80
2023-04-16T17:25:52.362Z,10.90
2023-04-16T17:28:21.722Z,10.90
2023-04-16T17:31:07.109Z,10.90
2023-04-16T17:33:34.097Z,10.80
2023-04-16T17:36:01.461Z,10.70
2023-04-16T17:38:28.261Z,10.70
2023-04-16T17:40:56.924Z,10.70
2023-04-16T17:43:25.032Z,10.80
2023-04-16T17:45:51.798Z,10.70
2023-04-16T17:48:18.559Z,10.70
2023-04-16T17:50:45.276Z,10.70
2023-04-16T17:53:14.673Z,10.60
2023-04-16T17:55:51.031Z,10.70
2023-04-16T17:58:25.335Z,10.80
2023-04-16T18:00:52.065Z,10.80
2023-04-16T18:03:22.272Z,10.80
2023-04-16T18:05:49.194Z,10.70
2023-04-16T18:08:16.244Z,10.70
2023-04-16T18:10:43.080Z,10.60
2023-04-16T18:13:10.000Z,10.70
2023-04-16T18:15:38.923Z,10.80
2023-04-16T18:18:06.016Z,10.70
2023-04-16T18:20:33.043Z,10.70
2023-04-16T18:23:00.500Z,10.60
2023-04-16T18:25:34.430Z,10.60
2023-04-16T18:28:03.739Z,10.50
2023-04-16T18:30:30.644Z,10.30
2023-04-16T18:33:16.455Z,10.40
2023-04-16T18:35:44.711Z,10.30
2023-04-16T18:38:13.477Z,10.30
2023-04-16T18:40:41.542Z,10.30
2023-04-16T18:43:08.318Z,10.20
2023-04-16T18:45:35.072Z,10.30
2023-04-16T18:48:04.001Z,10.20
2023-04-16T18:50:31.051Z,10.30
2023-04-16T18:52:57.745Z,10.20
2023-04-16T18:55:26.610Z,10.10
2023-04-16T18:57:55.489Z,10.10
2023-04-16T19:00:22.652Z,10.20
2023-04-16T19:02:49.631Z,10.10
2023-04-16T19:05:16.622Z,10.00
2023-04-16T19:07:43.454Z,9.90
2023-04-16T19:10:10.493Z,9.90
2023-04-16T19:12:37.253Z,9.90
2023-04-16T19:15:05.701Z,9.90
2023-04-16T19:17:32.431Z,9.80
2023-04-16T19:19:59.326Z,9.80
2023-04-16T19:22:26.266Z,9.80
2023-04-16T19:24:54.612Z,9.90
2023-04-16T19:27:21.326Z,9.80
2023-04-16T19:29:48.044Z,9.80
2023-04-16T19:32:14.796Z,9.90
2023-04-16T19:34:54.353Z,9.90
2023-04-16T19:37:21.120Z,9.90
2023-04-16T19:39:47.963Z,10.00
2023-04-16T19:42:16.729Z,9.90
2023-04-16T19:44:43.580Z,10.00
2023-04-16T19:47:10.633Z,9.90
2023-04-16T19:49:37.420Z,9.90
2023-04-16T19:52:04.478Z,9.70
2023-04-16T19:54:33.498Z,9.70
2023-04-16T19:57:01.272Z,9.80
2023-04-16T19:59:28.994Z,9.80
2023-04-16T20:01:55.859Z,9.90
2023-04-16T20:04:22.718Z,9.90
2023-04-16T20:06:49.761Z,10.00
2023-04-16T20:09:18.586Z,10.10
2023-04-16T20:11:46.389Z,10.00
2023-04-16T20:14:13.656Z,9.90
2023-04-16T20:16:41.012Z,10.00
2023-04-16T20:19:08.905Z,9.90
2023-04-16T20:21:36.090Z,9.90
2023-04-16T20:24:03.383Z,9.80
2023-04-16T20:26:34.034Z,9.90
2023-04-16T20:29:02.276Z,9.80
2023-04-16T20:31:29.264Z,9.80
2023-04-16T20:33:56.120Z,9.80
2023-04-16T20:36:22.878Z,9.70
2023-04-16T20:38:50.784Z,9.70
2023-04-16T20:41:22.347Z,9.70
2023-04-16T20:43:52.713Z,9.70
2023-04-16T20:46:24.546Z,9.70
2023-04-16T20:48:51.752Z,9.70
2023-04-16T20:51:18.720Z,9.80
2023-04-16T20:53:45.547Z,9.70
2023-04-16T20:56:16.757Z,9.70
2023-04-16T20:58:43.660Z,9.70
2023-04-16T21:01:10.556Z,9.70
2023-04-16T21:03:39.909Z,9.60
2023-04-16T21:06:06.700Z,9.60
2023-04-16T21:08:33.528Z,9.60
2023-04-16T21:11:00.621Z,9.50
2023-04-16T21:13:27.372Z,9.50
2023-04-16T21:15:54.166Z,9.50
2023-04-16T21:18:21.008Z,9.40
2023-04-16T21:20:47.874Z,9.50
2023-04-16T21:23:14.775Z,9.50
2023-04-16T21:25:41.503Z,9.40
2023-04-16T21:28:08.411Z,9.40
2023-04-16T21:30:35.147Z,9.40
2023-04-16T21:33:01.943Z,9.40
2023-04-16T21:35:32.875Z,9.40
2023-04-16T21:37:59.792Z,9.50
2023-04-16T21:40:26.680Z,9.50
2023-04-16T21:42:53.567Z,9.60
2023-04-16T21:45:21.732Z,9.60
2023-04-16T21:47:48.577Z,9.60
2023-04-16T21:50:15.491Z,9.50
2023-04-16T21:52:45.964Z,9.50
2023-04-16T21:55:14.343Z,9.50
2023-04-16T21:57:43.219Z,9.50
2023-04-16T22:00:13.758Z,9.60
2023-04-16T22:02:42.706Z,9.70
2023-04-16T22:05:11.336Z,9.50
2023-04-16T22:07:38.594Z,9.60
2023-04-16T22:10:06.739Z,9.50
2023-04-16T22:12:33.457Z,9.50
2023-04-16T22:15:02.899Z,9.40
2023-04-16T22:17:30.120Z,9.40
2023-04-16T22:20:00.769Z,9.40
2023-04-16T22:22:27.467Z,9.40
2023-04-16T22:24:56.742Z,9.50
2023-04-16T22:27:23.473Z,9.50
2023-04-16T22:29:50.667Z,9.60
2023-04-16T22:32:17.575Z,9.50
2023-04-16T22:34:44.475Z,9.50
2023-04-16T22:37:11.169Z,9.50
2023-04-16T22:39:37.932Z,9.50
2023-04-16T22:42:04.715Z,9.50
2023-04-16T22:44:31.477Z,9.50
2023-04-16T22:46:58.335Z,9.40
2023-04-16T22:49:26.183Z,9.30
2023-04-16T22:51:52.937Z,9.30
2023-04-16T22:54:19.667Z,9.20
2023-04-16T22:56:48.569Z,9.20
2023-04-16T22:59:15.413Z,9.30
2023-04-16T23:01:43.341Z,9.30
2023-04-16T23:04:11.289Z,9.30
2023-04-16T23:06:41.968Z,9.30
2023-04-16T23:09:09.579Z,9.30
2023-04-16T23:11:36.391Z,9.40
2023-04-16T23:14:04.976Z,9.40
2023-04-16T23:16:34.255Z,9.40
2023-04-16T23:19:00.995Z,9.40
2023-04-16T23:21:27.898Z,9.40
2023-04-16T23:23:58.997Z,9.50
2023-04-16T23:26:25.807Z,9.50
2023-04-16T23:28:52.581Z,9.30
2023-04-16T23:31:19.358Z,9.30
2023-04-16T23:33:47.458Z,9.30
2023-04-16T23:36:14.158Z,9.40
2023-04-16T23:38:42.073Z,9.40
2023-04-16T23:41:08.813Z,9.40
2023-04-16T23:43:36.356Z,9.30
2023-04-16T23:46:03.308Z,9.40
2023-04-16T23:48:30.194Z,9.30
2023-04-16T23:50:56.903Z,9.20
2023-04-16T23:53:23.713Z,9.20
2023-04-16T23:55:50.649Z,9.20
2023-04-16T23:58:17.401Z,9.20
